sensor_id;sensor_type;location;lat;lon;timestamp;P1;durP1;ratioP1;P2;durP2;ratioP2
38023;SDS011;23834;48.080;11.682;2024-02-28T00:00:43;3.87;;;3.57;;
38023;SDS011;23834;48.080;11.682;2024-02-28T00:03:09;3.93;;;3.67;;
38023;SDS011;23834;48.080;11.682;2024-02-28T00:05:34;3.27;;;3.07;;
38023;SDS011;23834;48.080;11.682;2024-02-28T00:07:59;4.10;;;3.80;;
38023;SDS011;23834;48.080;11.682;2024-02-28T00:10:24;3.87;;;3.57;;
38023;SDS011;23834;48.080;11.682;2024-02-28T00:12:49;3.70;;;3.43;;
38023;SDS011;23834;48.080;11.682;2024-02-28T00:15:15;3.70;;;3.40;;
38023;SDS011;23834;48.080;11.682;2024-02-28T00:17:40;3.80;;;3.60;;
38023;SDS011;23834;48.080;11.682;2024-02-28T00:20:06;3.60;;;3.33;;
38023;SDS011;23834;48.080;11.682;2024-02-28T00:22:31;3.97;;;3.67;;
38023;SDS011;23834;48.080;11.682;2024-02-28T00:24:57;3.27;;;3.07;;
38023;SDS011;23834;48.080;11.682;2024-02-28T00:27:22;3.43;;;3.23;;
38023;SDS011;23834;48.080;11.682;2024-02-28T00:29:47;3.23;;;3.03;;
38023;SDS011;23834;48.080;11.682;2024-02-28T00:32:12;4.00;;;3.70;;
38023;SDS011;23834;48.080;11.682;2024-02-28T00:34:37;4.00;;;3.70;;
38023;SDS011;23834;48.080;11.682;2024-02-28T00:37:03;3.93;;;3.63;;
38023;SDS011;23834;48.080;11.682;2024-02-28T00:39:28;3.80;;;3.50;;
38023;SDS011;23834;48.080;11.682;2024-02-28T00:41:53;3.43;;;3.23;;
38023;SDS011;23834;48.080;11.682;2024-02-28T00:44:18;3.50;;;3.20;;
38023;SDS011;23834;48.080;11.682;2024-02-28T00:46:43;3.60;;;3.30;;
38023;SDS011;23834;48.080;11.682;2024-02-28T00:49:08;4.00;;;3.70;;
38023;SDS011;23834;48.080;11.682;2024-02-28T00:51:34;3.40;;;3.20;;
38023;SDS011;23834;48.080;11.682;2024-02-28T00:54:01;3.60;;;3.40;;
38023;SDS011;23834;48.080;11.682;2024-02-28T00:56:26;4.03;;;3.73;;
38023;SDS011;23834;48.080;11.682;2024-02-28T00:58:52;3.97;;;3.70;;
38023;SDS011;23834;48.080;11.682;2024-02-28T01:01:17;3.87;;;3.57;;
38023;SDS011;23834;48.080;11.682;2024-02-28T01:03:42;3.37;;;3.07;;
38023;SDS011;23834;48.080;11.682;2024-02-28T01:06:07;3.60;;;3.40;;
38023;SDS011;23834;48.080;11.682;2024-02-28T01:08:32;3.60;;;3.30;;
38023;SDS011;23834;48.080;11.682;2024-02-28T01:10:58;4.00;;;3.70;;
38023;SDS011;23834;48.080;11.682;2024-02-28T01:13:24;3.83;;;3.57;;
38023;SDS011;23834;48.080;11.682;2024-02-28T01:15:49;3.40;;;3.20;;
38023;SDS011;23834;48.080;11.682;2024-02-28T01:18:14;3.50;;;3.30;;
38023;SDS011;23834;48.080;11.682;2024-02-28T01:20:39;3.40;;;3.20;;
38023;SDS011;23834;48.080;11.682;2024-02-28T01:23:05;4.27;;;3.97;;
38023;SDS011;23834;48.080;11.682;2024-02-28T01:25:30;3.50;;;3.27;;
38023;SDS011;23834;48.080;11.682;2024-02-28T01:27:58;3.60;;;3.40;;
38023;SDS011;23834;48.080;11.682;2024-02-28T01:30:23;3.87;;;3.57;;
38023;SDS011;23834;48.080;11.682;2024-02-28T01:32:48;3.93;;;3.63;;
38023;SDS011;23834;48.080;11.682;2024-02-28T01:35:14;3.60;;;3.30;;
38023;SDS011;23834;48.080;11.682;2024-02-28T01:37:39;3.77;;;3.57;;
38023;SDS011;23834;48.080;11.682;2024-02-28T01:40:10;3.67;;;3.10;;
38023;SDS011;23834;48.080;11.682;2024-02-28T01:42:35;3.40;;;3.20;;
38023;SDS011;23834;48.080;11.682;2024-02-28T01:45:01;3.97;;;3.67;;
38023;SDS011;23834;48.080;11.682;2024-02-28T01:47:26;3.70;;;3.43;;
38023;SDS011;23834;48.080;11.682;2024-02-28T01:49:51;3.50;;;3.30;;
38023;SDS011;23834;48.080;11.682;2024-02-28T01:52:18;3.40;;;3.20;;
38023;SDS011;23834;48.080;11.682;2024-02-28T01:54:43;3.97;;;3.67;;
38023;SDS011;23834;48.080;11.682;2024-02-28T01:57:09;4.00;;;3.70;;
38023;SDS011;23834;48.080;11.682;2024-02-28T01:59:34;3.87;;;3.57;;
38023;SDS011;23834;48.080;11.682;2024-02-28T02:01:59;4.27;;;3.97;;
38023;SDS011;23834;48.080;11.682;2024-02-28T02:04:25;3.37;;;3.17;;
38023;SDS011;23834;48.080;11.682;2024-02-28T02:06:50;3.30;;;3.10;;
38023;SDS011;23834;48.080;11.682;2024-02-28T02:09:17;3.70;;;3.50;;
38023;SDS011;23834;48.080;11.682;2024-02-28T02:11:43;3.70;;;3.40;;
38023;SDS011;23834;48.080;11.682;2024-02-28T02:14:08;3.40;;;3.17;;
38023;SDS011;23834;48.080;11.682;2024-02-28T02:16:33;3.60;;;3.30;;
38023;SDS011;23834;48.080;11.682;2024-02-28T02:18:58;3.73;;;3.43;;
38023;SDS011;23834;48.080;11.682;2024-02-28T02:21:24;3.60;;;3.30;;
38023;SDS011;23834;48.080;11.682;2024-02-28T02:23:51;4.10;;;3.63;;
38023;SDS011;23834;48.080;11.682;2024-02-28T02:26:17;3.70;;;3.40;;
38023;SDS011;23834;48.080;11.682;2024-02-28T02:28:42;3.80;;;3.60;;
38023;SDS011;23834;48.080;11.682;2024-02-28T02:31:07;4.10;;;3.80;;
38023;SDS011;23834;48.080;11.682;2024-02-28T02:33:32;3.70;;;3.43;;
38023;SDS011;23834;48.080;11.682;2024-02-28T02:35:58;3.00;;;2.80;;
38023;SDS011;23834;48.080;11.682;2024-02-28T02:38:23;3.60;;;3.40;;
38023;SDS011;23834;48.080;11.682;2024-02-28T02:40:51;3.40;;;3.20;;
38023;SDS011;23834;48.080;11.682;2024-02-28T02:43:17;3.53;;;3.23;;
38023;SDS011;23834;48.080;11.682;2024-02-28T02:45:42;3.70;;;3.47;;
38023;SDS011;23834;48.080;11.682;2024-02-28T02:48:08;3.70;;;3.40;;
38023;SDS011;23834;48.080;11.682;2024-02-28T02:50:33;3.57;;;3.33;;
38023;SDS011;23834;48.080;11.682;2024-02-28T02:52:58;3.30;;;3.10;;
38023;SDS011;23834;48.080;11.682;2024-02-28T02:55:24;3.50;;;3.30;;
38023;SDS011;23834;48.080;11.682;2024-02-28T02:57:49;3.67;;;3.47;;
38023;SDS011;23834;48.080;11.682;2024-02-28T03:00:14;3.80;;;3.50;;
38023;SDS011;23834;48.080;11.682;2024-02-28T03:02:39;3.77;;;3.47;;
38023;SDS011;23834;48.080;11.682;2024-02-28T03:05:05;3.80;;;3.47;;
38023;SDS011;23834;48.080;11.682;2024-02-28T03:07:30;3.83;;;3.53;;
38023;SDS011;23834;48.080;11.682;2024-02-28T03:09:55;3.37;;;3.17;;
38023;SDS011;23834;48.080;11.682;2024-02-28T03:12:20;3.40;;;3.20;;
38023;SDS011;23834;48.080;11.682;2024-02-28T03:14:46;3.90;;;3.60;;
38023;SDS011;23834;48.080;11.682;2024-02-28T03:17:12;4.00;;;3.70;;
38023;SDS011;23834;48.080;11.682;2024-02-28T03:19:37;3.63;;;3.43;;
38023;SDS011;23834;48.080;11.682;2024-02-28T03:22:03;4.27;;;3.97;;
38023;SDS011;23834;48.080;11.682;2024-02-28T03:24:28;3.90;;;3.60;;
38023;SDS011;23834;48.080;11.682;2024-02-28T03:26:53;3.80;;;3.60;;
38023;SDS011;23834;48.080;11.682;2024-02-28T03:29:18;3.57;;;3.37;;
38023;SDS011;23834;48.080;11.682;2024-02-28T03:31:43;3.90;;;3.60;;
38023;SDS011;23834;48.080;11.682;2024-02-28T03:34:08;3.60;;;3.40;;
38023;SDS011;23834;48.080;11.682;2024-02-28T03:36:34;4.27;;;3.97;;
38023;SDS011;23834;48.080;11.682;2024-02-28T03:39:00;4.20;;;3.90;;
38023;SDS011;23834;48.080;11.682;2024-02-28T03:41:25;3.73;;;3.43;;
38023;SDS011;23834;48.080;11.682;2024-02-28T03:43:50;4.03;;;3.77;;
38023;SDS011;23834;48.080;11.682;2024-02-28T03:46:15;4.20;;;3.90;;
38023;SDS011;23834;48.080;11.682;2024-02-28T03:48:40;3.97;;;3.67;;
38023;SDS011;23834;48.080;11.682;2024-02-28T03:51:06;4.80;;;4.40;;
38023;SDS011;23834;48.080;11.682;2024-02-28T03:53:31;4.63;;;4.33;;
38023;SDS011;23834;48.080;11.682;2024-02-28T03:55:57;3.90;;;3.67;;
38023;SDS011;23834;48.080;11.682;2024-02-28T03:58:22;4.13;;;3.83;;
38023;SDS011;23834;48.080;11.682;2024-02-28T04:00:47;4.40;;;4.10;;
38023;SDS011;23834;48.080;11.682;2024-02-28T04:03:12;4.30;;;4.00;;
38023;SDS011;23834;48.080;11.682;2024-02-28T04:05:39;4.70;;;4.30;;
38023;SDS011;23834;48.080;11.682;2024-02-28T04:08:04;4.50;;;4.20;;
38023;SDS011;23834;48.080;11.682;2024-02-28T04:10:29;4.53;;;4.23;;
38023;SDS011;23834;48.080;11.682;2024-02-28T04:12:54;4.30;;;3.90;;
38023;SDS011;23834;48.080;11.682;2024-02-28T04:15:20;4.70;;;4.30;;
38023;SDS011;23834;48.080;11.682;2024-02-28T04:17:45;4.47;;;4.17;;
38023;SDS011;23834;48.080;11.682;2024-02-28T04:20:10;5.07;;;4.70;;
38023;SDS011;23834;48.080;11.682;2024-02-28T04:22:36;4.90;;;4.40;;
38023;SDS011;23834;48.080;11.682;2024-02-28T04:25:01;4.73;;;4.33;;
38023;SDS011;23834;48.080;11.682;2024-02-28T04:27:26;4.80;;;4.50;;
38023;SDS011;23834;48.080;11.682;2024-02-28T04:29:51;4.60;;;4.23;;
38023;SDS011;23834;48.080;11.682;2024-02-28T04:32:16;4.50;;;4.20;;
38023;SDS011;23834;48.080;11.682;2024-02-28T04:34:42;5.30;;;4.80;;
38023;SDS011;23834;48.080;11.682;2024-02-28T04:37:07;4.67;;;4.30;;
38023;SDS011;23834;48.080;11.682;2024-02-28T04:39:32;5.17;;;4.77;;
38023;SDS011;23834;48.080;11.682;2024-02-28T04:41:57;5.07;;;4.67;;
38023;SDS011;23834;48.080;11.682;2024-02-28T04:44:22;4.77;;;4.37;;
38023;SDS011;23834;48.080;11.682;2024-02-28T04:46:48;4.50;;;4.13;;
38023;SDS011;23834;48.080;11.682;2024-02-28T04:49:13;4.43;;;4.10;;
38023;SDS011;23834;48.080;11.682;2024-02-28T04:51:38;5.07;;;4.67;;
38023;SDS011;23834;48.080;11.682;2024-02-28T04:54:03;5.10;;;4.70;;
38023;SDS011;23834;48.080;11.682;2024-02-28T04:56:28;5.20;;;4.80;;
38023;SDS011;23834;48.080;11.682;2024-02-28T04:58:54;4.80;;;4.50;;
38023;SDS011;23834;48.080;11.682;2024-02-28T05:01:19;4.60;;;4.30;;
38023;SDS011;23834;48.080;11.682;2024-02-28T05:03:44;4.50;;;4.20;;
38023;SDS011;23834;48.080;11.682;2024-02-28T05:06:09;4.63;;;4.33;;
38023;SDS011;23834;48.080;11.682;2024-02-28T05:08:37;5.20;;;4.80;;
38023;SDS011;23834;48.080;11.682;2024-02-28T05:11:02;4.70;;;4.37;;
38023;SDS011;23834;48.080;11.682;2024-02-28T05:13:27;5.60;;;5.10;;
38023;SDS011;23834;48.080;11.682;2024-02-28T05:15:52;4.70;;;4.30;;
38023;SDS011;23834;48.080;11.682;2024-02-28T05:18:17;4.53;;;4.23;;
38023;SDS011;23834;48.080;11.682;2024-02-28T05:20:43;4.80;;;4.40;;
38023;SDS011;23834;48.080;11.682;2024-02-28T05:23:08;5.53;;;5.13;;
38023;SDS011;23834;48.080;11.682;2024-02-28T05:25:33;4.87;;;4.57;;
38023;SDS011;23834;48.080;11.682;2024-02-28T05:27:58;4.50;;;4.20;;
38023;SDS011;23834;48.080;11.682;2024-02-28T05:30:23;4.90;;;4.50;;
38023;SDS011;23834;48.080;11.682;2024-02-28T05:32:49;5.10;;;4.70;;
38023;SDS011;23834;48.080;11.682;2024-02-28T05:35:15;4.90;;;4.50;;
38023;SDS011;23834;48.080;11.682;2024-02-28T05:37:40;4.90;;;4.50;;
38023;SDS011;23834;48.080;11.682;2024-02-28T05:40:06;4.77;;;4.37;;
38023;SDS011;23834;48.080;11.682;2024-02-28T05:42:31;4.70;;;4.40;;
38023;SDS011;23834;48.080;11.682;2024-02-28T05:44:56;5.17;;;4.77;;
38023;SDS011;23834;48.080;11.682;2024-02-28T05:47:22;4.63;;;4.30;;
38023;SDS011;23834;48.080;11.682;2024-02-28T05:49:48;4.60;;;4.30;;
38023;SDS011;23834;48.080;11.682;2024-02-28T05:52:13;5.20;;;4.80;;
38023;SDS011;23834;48.080;11.682;2024-02-28T05:54:38;4.40;;;4.10;;
38023;SDS011;23834;48.080;11.682;2024-02-28T05:57:03;5.00;;;4.50;;
38023;SDS011;23834;48.080;11.682;2024-02-28T05:59:28;5.40;;;5.00;;
38023;SDS011;23834;48.080;11.682;2024-02-28T06:01:54;5.20;;;4.70;;
38023;SDS011;23834;48.080;11.682;2024-02-28T06:04:19;5.70;;;5.20;;
38023;SDS011;23834;48.080;11.682;2024-02-28T06:06:44;5.00;;;4.60;;
38023;SDS011;23834;48.080;11.682;2024-02-28T06:09:10;5.17;;;4.73;;
38023;SDS011;23834;48.080;11.682;2024-02-28T06:11:35;4.80;;;4.50;;
38023;SDS011;23834;48.080;11.682;2024-02-28T06:14:00;5.10;;;4.70;;
38023;SDS011;23834;48.080;11.682;2024-02-28T06:16:27;5.20;;;4.80;;
38023;SDS011;23834;48.080;11.682;2024-02-28T06:18:52;5.07;;;4.67;;
38023;SDS011;23834;48.080;11.682;2024-02-28T06:21:17;5.10;;;4.70;;
38023;SDS011;23834;48.080;11.682;2024-02-28T06:23:42;5.17;;;4.77;;
38023;SDS011;23834;48.080;11.682;2024-02-28T06:26:08;5.50;;;5.10;;
38023;SDS011;23834;48.080;11.682;2024-02-28T06:28:39;4.60;;;4.30;;
38023;SDS011;23834;48.080;11.682;2024-02-28T06:31:11;5.13;;;4.73;;
38023;SDS011;23834;48.080;11.682;2024-02-28T06:33:36;4.90;;;4.50;;
38023;SDS011;23834;48.080;11.682;2024-02-28T06:36:01;4.77;;;4.40;;
38023;SDS011;23834;48.080;11.682;2024-02-28T06:38:26;5.00;;;4.60;;
38023;SDS011;23834;48.080;11.682;2024-02-28T06:40:51;4.57;;;4.20;;
38023;SDS011;23834;48.080;11.682;2024-02-28T06:43:17;5.23;;;4.83;;
38023;SDS011;23834;48.080;11.682;2024-02-28T06:45:42;5.00;;;4.60;;
38023;SDS011;23834;48.080;11.682;2024-02-28T06:48:07;4.77;;;4.37;;
38023;SDS011;23834;48.080;11.682;2024-02-28T06:50:32;5.17;;;4.77;;
38023;SDS011;23834;48.080;11.682;2024-02-28T06:52:57;4.97;;;4.60;;
38023;SDS011;23834;48.080;11.682;2024-02-28T06:55:23;5.27;;;4.87;;
38023;SDS011;23834;48.080;11.682;2024-02-28T06:57:48;5.03;;;4.63;;
38023;SDS011;23834;48.080;11.682;2024-02-28T07:00:13;5.50;;;5.00;;
38023;SDS011;23834;48.080;11.682;2024-02-28T07:02:39;5.30;;;4.90;;
38023;SDS011;23834;48.080;11.682;2024-02-28T07:05:05;5.17;;;4.77;;
38023;SDS011;23834;48.080;11.682;2024-02-28T07:07:31;5.57;;;5.10;;
38023;SDS011;23834;48.080;11.682;2024-02-28T07:09:57;5.53;;;5.03;;
38023;SDS011;23834;48.080;11.682;2024-02-28T07:12:22;5.00;;;4.70;;
38023;SDS011;23834;48.080;11.682;2024-02-28T07:14:47;5.57;;;5.17;;
38023;SDS011;23834;48.080;11.682;2024-02-28T07:17:12;5.30;;;4.90;;
38023;SDS011;23834;48.080;11.682;2024-02-28T07:19:37;5.20;;;4.80;;
38023;SDS011;23834;48.080;11.682;2024-02-28T07:22:03;6.17;;;5.67;;
38023;SDS011;23834;48.080;11.682;2024-02-28T07:24:30;5.50;;;5.03;;
38023;SDS011;23834;48.080;11.682;2024-02-28T07:26:55;5.10;;;4.70;;
38023;SDS011;23834;48.080;11.682;2024-02-28T07:29:20;4.80;;;4.40;;
38023;SDS011;23834;48.080;11.682;2024-02-28T07:31:46;5.27;;;4.87;;
38023;SDS011;23834;48.080;11.682;2024-02-28T07:34:11;5.50;;;5.10;;
38023;SDS011;23834;48.080;11.682;2024-02-28T07:36:36;4.80;;;4.40;;
38023;SDS011;23834;48.080;11.682;2024-02-28T07:39:02;5.60;;;5.20;;
38023;SDS011;23834;48.080;11.682;2024-02-28T07:41:27;5.00;;;4.60;;
38023;SDS011;23834;48.080;11.682;2024-02-28T07:43:53;5.17;;;4.77;;
38023;SDS011;23834;48.080;11.682;2024-02-28T07:46:18;5.60;;;5.20;;
38023;SDS011;23834;48.080;11.682;2024-02-28T07:48:43;5.30;;;4.90;;
38023;SDS011;23834;48.080;11.682;2024-02-28T07:51:08;5.20;;;4.77;;
38023;SDS011;23834;48.080;11.682;2024-02-28T07:53:34;5.40;;;4.97;;
38023;SDS011;23834;48.080;11.682;2024-02-28T07:55:59;5.80;;;5.40;;
38023;SDS011;23834;48.080;11.682;2024-02-28T07:58:25;5.43;;;5.03;;
38023;SDS011;23834;48.080;11.682;2024-02-28T08:00:50;5.20;;;4.80;;
38023;SDS011;23834;48.080;11.682;2024-02-28T08:03:17;5.50;;;5.10;;
38023;SDS011;23834;48.080;11.682;2024-02-28T08:05:42;5.67;;;5.17;;
38023;SDS011;23834;48.080;11.682;2024-02-28T08:08:09;5.43;;;5.00;;
38023;SDS011;23834;48.080;11.682;2024-02-28T08:10:35;6.57;;;5.97;;
38023;SDS011;23834;48.080;11.682;2024-02-28T08:13:00;5.93;;;5.50;;
38023;SDS011;23834;48.080;11.682;2024-02-28T08:15:25;6.00;;;5.50;;
38023;SDS011;23834;48.080;11.682;2024-02-28T08:17:51;6.13;;;5.63;;
38023;SDS011;23834;48.080;11.682;2024-02-28T08:20:16;6.40;;;5.80;;
38023;SDS011;23834;48.080;11.682;2024-02-28T08:22:41;6.10;;;5.60;;
38023;SDS011;23834;48.080;11.682;2024-02-28T08:25:06;6.60;;;6.10;;
38023;SDS011;23834;48.080;11.682;2024-02-28T08:27:32;6.23;;;5.63;;
38023;SDS011;23834;48.080;11.682;2024-02-28T08:29:59;5.87;;;5.37;;
38023;SDS011;23834;48.080;11.682;2024-02-28T08:32:24;6.50;;;6.00;;
38023;SDS011;23834;48.080;11.682;2024-02-28T08:34:49;6.17;;;5.60;;
38023;SDS011;23834;48.080;11.682;2024-02-28T08:37:14;6.20;;;5.70;;
38023;SDS011;23834;48.080;11.682;2024-02-28T08:39:39;7.10;;;6.50;;
38023;SDS011;23834;48.080;11.682;2024-02-28T08:42:05;6.37;;;5.80;;
38023;SDS011;23834;48.080;11.682;2024-02-28T08:44:30;6.03;;;5.53;;
38023;SDS011;23834;48.080;11.682;2024-02-28T08:46:55;6.77;;;6.27;;
38023;SDS011;23834;48.080;11.682;2024-02-28T08:49:20;6.83;;;6.30;;
38023;SDS011;23834;48.080;11.682;2024-02-28T08:51:46;5.80;;;5.30;;
38023;SDS011;23834;48.080;11.682;2024-02-28T08:54:11;7.13;;;6.53;;
38023;SDS011;23834;48.080;11.682;2024-02-28T08:56:36;6.70;;;6.10;;
38023;SDS011;23834;48.080;11.682;2024-02-28T08:59:01;6.90;;;6.30;;
38023;SDS011;23834;48.080;11.682;2024-02-28T09:01:26;6.53;;;6.00;;
38023;SDS011;23834;48.080;11.682;2024-02-28T09:03:51;6.50;;;6.00;;
38023;SDS011;23834;48.080;11.682;2024-02-28T09:06:17;5.73;;;5.33;;
38023;SDS011;23834;48.080;11.682;2024-02-28T09:08:42;6.40;;;5.80;;
38023;SDS011;23834;48.080;11.682;2024-02-28T09:11:07;7.07;;;6.47;;
38023;SDS011;23834;48.080;11.682;2024-02-28T09:13:32;6.97;;;6.20;;
38023;SDS011;23834;48.080;11.682;2024-02-28T09:15:58;5.47;;;5.07;;
38023;SDS011;23834;48.080;11.682;2024-02-28T09:18:23;6.63;;;6.03;;
38023;SDS011;23834;48.080;11.682;2024-02-28T09:20:48;6.00;;;5.50;;
38023;SDS011;23834;48.080;11.682;2024-02-28T09:23:13;6.10;;;5.60;;
38023;SDS011;23834;48.080;11.682;2024-02-28T09:25:39;6.00;;;5.50;;
38023;SDS011;23834;48.080;11.682;2024-02-28T09:28:05;6.47;;;5.90;;
38023;SDS011;23834;48.080;11.682;2024-02-28T09:30:30;5.93;;;5.37;;
38023;SDS011;23834;48.080;11.682;2024-02-28T09:32:55;6.67;;;6.07;;
38023;SDS011;23834;48.080;11.682;2024-02-28T09:35:20;5.90;;;5.40;;
38023;SDS011;23834;48.080;11.682;2024-02-28T09:37:45;6.27;;;5.77;;
38023;SDS011;23834;48.080;11.682;2024-02-28T09:40:11;5.73;;;5.33;;
38023;SDS011;23834;48.080;11.682;2024-02-28T09:42:36;6.63;;;6.03;;
38023;SDS011;23834;48.080;11.682;2024-02-28T09:45:02;6.27;;;5.77;;
38023;SDS011;23834;48.080;11.682;2024-02-28T09:47:28;5.87;;;5.37;;
38023;SDS011;23834;48.080;11.682;2024-02-28T09:49:53;6.17;;;5.67;;
38023;SDS011;23834;48.080;11.682;2024-02-28T09:52:18;6.30;;;5.77;;
38023;SDS011;23834;48.080;11.682;2024-02-28T09:54:43;6.30;;;5.80;;
38023;SDS011;23834;48.080;11.682;2024-02-28T09:57:10;5.90;;;5.40;;
38023;SDS011;23834;48.080;11.682;2024-02-28T09:59:36;6.00;;;5.40;;
38023;SDS011;23834;48.080;11.682;2024-02-28T10:02:01;6.07;;;5.57;;
38023;SDS011;23834;48.080;11.682;2024-02-28T10:04:28;6.70;;;6.10;;
38023;SDS011;23834;48.080;11.682;2024-02-28T10:06:54;6.03;;;5.53;;
38023;SDS011;23834;48.080;11.682;2024-02-28T10:09:19;5.80;;;5.30;;
38023;SDS011;23834;48.080;11.682;2024-02-28T10:11:44;6.87;;;6.00;;
38023;SDS011;23834;48.080;11.682;2024-02-28T10:14:11;6.27;;;5.77;;
38023;SDS011;23834;48.080;11.682;2024-02-28T10:16:36;6.77;;;6.17;;
38023;SDS011;23834;48.080;11.682;2024-02-28T10:19:01;6.20;;;5.70;;
38023;SDS011;23834;48.080;11.682;2024-02-28T10:21:29;6.40;;;5.90;;
38023;SDS011;23834;48.080;11.682;2024-02-28T10:23:57;5.93;;;5.43;;
38023;SDS011;23834;48.080;11.682;2024-02-28T10:26:23;6.27;;;5.67;;
38023;SDS011;23834;48.080;11.682;2024-02-28T10:28:48;6.60;;;6.00;;
38023;SDS011;23834;48.080;11.682;2024-02-28T10:31:14;6.17;;;5.70;;
38023;SDS011;23834;48.080;11.682;2024-02-28T10:33:41;6.20;;;5.60;;
38023;SDS011;23834;48.080;11.682;2024-02-28T10:36:06;6.30;;;5.70;;
38023;SDS011;23834;48.080;11.682;2024-02-28T10:38:32;5.70;;;5.20;;
38023;SDS011;23834;48.080;11.682;2024-02-28T10:41:03;6.60;;;6.00;;
38023;SDS011;23834;48.080;11.682;2024-02-28T10:43:29;6.33;;;5.83;;
38023;SDS011;23834;48.080;11.682;2024-02-28T10:45:56;6.77;;;6.17;;
38023;SDS011;23834;48.080;11.682;2024-02-28T10:48:21;6.37;;;5.87;;
38023;SDS011;23834;48.080;11.682;2024-02-28T10:50:47;6.57;;;6.07;;
38023;SDS011;23834;48.080;11.682;2024-02-28T10:53:15;5.77;;;5.30;;
38023;SDS011;23834;48.080;11.682;2024-02-28T10:55:45;5.80;;;5.23;;
38023;SDS011;23834;48.080;11.682;2024-02-28T10:58:12;5.53;;;5.13;;
38023;SDS011;23834;48.080;11.682;2024-02-28T11:00:39;6.60;;;6.00;;
38023;SDS011;23834;48.080;11.682;2024-02-28T11:03:06;6.20;;;5.60;;
38023;SDS011;23834;48.080;11.682;2024-02-28T11:05:39;6.40;;;5.90;;
38023;SDS011;23834;48.080;11.682;2024-02-28T11:08:05;6.33;;;5.83;;
38023;SDS011;23834;48.080;11.682;2024-02-28T11:10:31;6.63;;;6.03;;
38023;SDS011;23834;48.080;11.682;2024-02-28T11:12:57;6.10;;;5.57;;
38023;SDS011;23834;48.080;11.682;2024-02-28T11:15:24;6.67;;;6.03;;
38023;SDS011;23834;48.080;11.682;2024-02-28T11:17:49;6.47;;;5.97;;
38023;SDS011;23834;48.080;11.682;2024-02-28T11:20:15;6.23;;;5.63;;
38023;SDS011;23834;48.080;11.682;2024-02-28T11:22:40;6.20;;;5.70;;
38023;SDS011;23834;48.080;11.682;2024-02-28T11:25:05;6.43;;;5.83;;
38023;SDS011;23834;48.080;11.682;2024-02-28T11:27:31;6.50;;;6.00;;
38023;SDS011;23834;48.080;11.682;2024-02-28T11:29:56;6.20;;;5.70;;
38023;SDS011;23834;48.080;11.682;2024-02-28T11:32:24;6.73;;;6.03;;
38023;SDS011;23834;48.080;11.682;2024-02-28T11:34:49;6.40;;;5.90;;
38023;SDS011;23834;48.080;11.682;2024-02-28T11:37:16;7.33;;;6.20;;
38023;SDS011;23834;48.080;11.682;2024-02-28T11:39:46;6.57;;;5.50;;
38023;SDS011;23834;48.080;11.682;2024-02-28T11:42:15;6.27;;;5.77;;
38023;SDS011;23834;48.080;11.682;2024-02-28T11:44:40;6.07;;;5.50;;
38023;SDS011;23834;48.080;11.682;2024-02-28T11:47:07;6.17;;;5.63;;
38023;SDS011;23834;48.080;11.682;2024-02-28T11:49:34;6.27;;;5.77;;
38023;SDS011;23834;48.080;11.682;2024-02-28T11:51:59;6.00;;;5.50;;
38023;SDS011;23834;48.080;11.682;2024-02-28T11:54:24;6.60;;;6.00;;
38023;SDS011;23834;48.080;11.682;2024-02-28T11:56:49;6.17;;;5.63;;
38023;SDS011;23834;48.080;11.682;2024-02-28T11:59:15;6.20;;;5.70;;
38023;SDS011;23834;48.080;11.682;2024-02-28T12:01:42;6.50;;;6.00;;
38023;SDS011;23834;48.080;11.682;2024-02-28T12:04:08;6.00;;;5.50;;
38023;SDS011;23834;48.080;11.682;2024-02-28T12:06:35;6.33;;;5.80;;
38023;SDS011;23834;48.080;11.682;2024-02-28T12:09:07;6.13;;;5.63;;
38023;SDS011;23834;48.080;11.682;2024-02-28T12:11:33;5.93;;;5.47;;
38023;SDS011;23834;48.080;11.682;2024-02-28T12:13:59;5.90;;;5.40;;
38023;SDS011;23834;48.080;11.682;2024-02-28T12:16:27;6.43;;;5.83;;
38023;SDS011;23834;48.080;11.682;2024-02-28T12:18:53;6.73;;;6.13;;
38023;SDS011;23834;48.080;11.682;2024-02-28T12:21:18;5.83;;;5.37;;
38023;SDS011;23834;48.080;11.682;2024-02-28T12:23:44;6.07;;;5.57;;
38023;SDS011;23834;48.080;11.682;2024-02-28T12:26:09;6.30;;;5.70;;
38023;SDS011;23834;48.080;11.682;2024-02-28T12:28:34;6.60;;;6.00;;
38023;SDS011;23834;48.080;11.682;2024-02-28T12:30:59;5.80;;;5.30;;
38023;SDS011;23834;48.080;11.682;2024-02-28T12:33:24;7.23;;;6.53;;
38023;SDS011;23834;48.080;11.682;2024-02-28T12:35:49;7.40;;;6.80;;
38023;SDS011;23834;48.080;11.682;2024-02-28T12:38:16;6.90;;;6.40;;
38023;SDS011;23834;48.080;11.682;2024-02-28T12:40:41;8.00;;;7.20;;
38023;SDS011;23834;48.080;11.682;2024-02-28T12:43:07;7.60;;;6.90;;
38023;SDS011;23834;48.080;11.682;2024-02-28T12:45:32;7.73;;;7.03;;
38023;SDS011;23834;48.080;11.682;2024-02-28T12:47:57;8.73;;;7.97;;
38023;SDS011;23834;48.080;11.682;2024-02-28T12:50:23;7.90;;;7.20;;
38023;SDS011;23834;48.080;11.682;2024-02-28T12:52:49;7.80;;;7.13;;
38023;SDS011;23834;48.080;11.682;2024-02-28T12:55:18;7.50;;;6.90;;
38023;SDS011;23834;48.080;11.682;2024-02-28T12:57:43;7.73;;;7.03;;
38023;SDS011;23834;48.080;11.682;2024-02-28T13:00:09;8.50;;;7.80;;
38023;SDS011;23834;48.080;11.682;2024-02-28T13:02:34;7.67;;;7.03;;
38023;SDS011;23834;48.080;11.682;2024-02-28T13:04:59;7.80;;;7.20;;
38023;SDS011;23834;48.080;11.682;2024-02-28T13:07:24;7.30;;;6.60;;
38023;SDS011;23834;48.080;11.682;2024-02-28T13:09:49;7.70;;;7.10;;
38023;SDS011;23834;48.080;11.682;2024-02-28T13:12:14;7.33;;;6.67;;
38023;SDS011;23834;48.080;11.682;2024-02-28T13:14:40;7.00;;;6.50;;
38023;SDS011;23834;48.080;11.682;2024-02-28T13:17:05;6.87;;;6.27;;
38023;SDS011;23834;48.080;11.682;2024-02-28T13:19:30;7.53;;;6.83;;
38023;SDS011;23834;48.080;11.682;2024-02-28T13:21:55;7.30;;;6.70;;
38023;SDS011;23834;48.080;11.682;2024-02-28T13:24:21;7.93;;;7.23;;
38023;SDS011;23834;48.080;11.682;2024-02-28T13:26:46;7.40;;;6.80;;
38023;SDS011;23834;48.080;11.682;2024-02-28T13:29:11;7.07;;;6.47;;
38023;SDS011;23834;48.080;11.682;2024-02-28T13:31:36;7.40;;;6.80;;
38023;SDS011;23834;48.080;11.682;2024-02-28T13:34:01;6.80;;;6.20;;
38023;SDS011;23834;48.080;11.682;2024-02-28T13:36:28;7.10;;;6.47;;
38023;SDS011;23834;48.080;11.682;2024-02-28T13:38:53;6.40;;;5.90;;
38023;SDS011;23834;48.080;11.682;2024-02-28T13:41:18;7.17;;;6.57;;
38023;SDS011;23834;48.080;11.682;2024-02-28T13:43:43;6.60;;;6.00;;
38023;SDS011;23834;48.080;11.682;2024-02-28T13:46:08;6.77;;;6.23;;
38023;SDS011;23834;48.080;11.682;2024-02-28T13:48:35;7.07;;;6.57;;
38023;SDS011;23834;48.080;11.682;2024-02-28T13:51:00;6.20;;;5.70;;
38023;SDS011;23834;48.080;11.682;2024-02-28T13:53:26;6.60;;;6.00;;
38023;SDS011;23834;48.080;11.682;2024-02-28T13:55:52;6.50;;;6.00;;
38023;SDS011;23834;48.080;11.682;2024-02-28T13:58:17;6.30;;;5.80;;
38023;SDS011;23834;48.080;11.682;2024-02-28T14:00:43;5.73;;;5.33;;
38023;SDS011;23834;48.080;11.682;2024-02-28T14:03:10;6.13;;;5.63;;
38023;SDS011;23834;48.080;11.682;2024-02-28T14:05:35;6.40;;;5.90;;
38023;SDS011;23834;48.080;11.682;2024-02-28T14:08:00;6.77;;;6.17;;
38023;SDS011;23834;48.080;11.682;2024-02-28T14:10:28;7.27;;;6.67;;
38023;SDS011;23834;48.080;11.682;2024-02-28T14:12:53;5.43;;;5.00;;
38023;SDS011;23834;48.080;11.682;2024-02-28T14:15:19;6.13;;;5.73;;
38023;SDS011;23834;48.080;11.682;2024-02-28T14:17:44;6.33;;;5.83;;
38023;SDS011;23834;48.080;11.682;2024-02-28T14:20:10;6.00;;;5.50;;
38023;SDS011;23834;48.080;11.682;2024-02-28T14:22:36;6.57;;;5.97;;